Time;durP1;ratioP1;P1;durP2;ratioP2;P2;SDS_P1;SDS_P2;PMS_P1;PMS_P2;Temp;Humidity;BMP_temperature;BMP_pressure;BME280_temperature;BME280_humidity;BME280_pressure;Samples;Min_cycle;Max_cycle;Signal;HPM_P1;HPM_P2
2021/09/05 00:01:17;;;;;;;45.63;10.23;;;;;;;4.63;100.00;101079.66;1785002;80;21014;-54
2021/09/05 00:03:44;;;;;;;35.90;10.00;;;;;;;4.59;100.00;101083.45;1785200;80;21638;-53
2021/09/05 00:06:11;;;;;;;67.50;11.38;;;;;;;4.58;100.00;101080.45;1785096;79;20959;-55
2021/09/05 00:08:37;;;;;;;24.07;7.30;;;;;;;4.57;100.00;101088.14;1785154;80;21002;-55
2021/09/05 00:11:05;;;;;;;24.90;7.12;;;;;;;4.63;100.00;101091.20;1785264;80;21035;-53
2021/09/05 00:13:32;;;;;;;9.78;5.60;;;;;;;4.68;100.00;101093.44;1785340;80;20935;-54
2021/09/05 00:15:59;;;;;;;18.45;6.58;;;;;;;4.73;100.00;101093.94;1785353;80;20962;-52
2021/09/05 00:18:27;;;;;;;24.90;7.90;;;;;;;4.82;100.00;101091.94;1785076;80;20948;-53
2021/09/05 00:20:53;;;;;;;13.70;6.00;;;;;;;4.82;100.00;101091.94;1785242;80;20998;-54
2021/09/05 00:23:20;;;;;;;14.85;6.53;;;;;;;4.84;100.00;101096.67;1785334;80;21484;-52
2021/09/05 00:25:46;;;;;;;19.73;6.92;;;;;;;4.87;100.00;101095.44;1784857;80;20923;-53
2021/09/05 00:28:13;;;;;;;18.23;6.90;;;;;;;4.89;100.00;101098.03;1785333;80;20892;-53
2021/09/05 00:30:40;;;;;;;21.07;6.33;;;;;;;4.87;100.00;101098.00;1784861;80;20943;-55
2021/09/05 00:33:07;;;;;;;22.73;7.47;;;;;;;4.85;100.00;101099.68;1785273;80;20924;-53
2021/09/05 00:35:35;;;;;;;17.02;6.85;;;;;;;4.82;100.00;101099.64;1785012;80;21156;-54
2021/09/05 00:38:02;;;;;;;24.37;7.67;;;;;;;4.75;100.00;101107.65;1783027;80;22146;-53
2021/09/05 00:40:30;;;;;;;24.63;7.60;;;;;;;4.69;100.00;101102.86;1779215;79;20916;-53
2021/09/05 00:42:56;;;;;;;22.62;7.90;;;;;;;4.62;100.00;101101.89;1779166;80;21018;-54
2021/09/05 00:45:23;;;;;;;26.07;7.40;;;;;;;4.57;100.00;101102.23;1779199;80;20931;-55
2021/09/05 00:47:49;;;;;;;20.50;7.50;;;;;;;4.50;100.00;101106.80;1779181;80;21304;-54
2021/09/05 00:50:16;;;;;;;23.62;7.85;;;;;;;4.42;100.00;101111.78;1779543;80;21642;-54
2021/09/05 00:52:43;;;;;;;17.73;7.33;;;;;;;4.38;100.00;101108.73;1779274;80;21583;-53
2021/09/05 00:55:10;;;;;;;21.65;7.72;;;;;;;4.31;100.00;101118.03;1779474;80;20975;-52
2021/09/05 00:57:42;;;;;;;25.15;8.20;;;;;;;4.28;100.00;101116.67;1779162;80;20923;-53
2021/09/05 01:00:09;;;;;;;16.48;6.33;;;;;;;4.26;100.00;101120.50;1779522;80;21708;-52
2021/09/05 01:02:37;;;;;;;14.68;6.40;;;;;;;4.24;100.00;101126.02;1774699;80;20962;-54
2021/09/05 01:05:06;;;;;;;32.75;7.85;;;;;;;4.24;100.00;101126.02;1779527;80;20947;-55
2021/09/05 01:07:33;;;;;;;26.52;8.50;;;;;;;4.21;100.00;101128.94;1779298;80;21073;-54
2021/09/05 01:10:01;;;;;;;31.93;9.98;;;;;;;4.14;100.00;101143.32;1779334;80;20936;-53
2021/09/05 01:12:29;;;;;;;33.58;9.53;;;;;;;4.14;100.00;101143.32;1779185;80;21229;-51
2021/09/05 01:14:55;;;;;;;22.82;9.08;;;;;;;4.10;100.00;101155.63;1779370;80;20928;-51
2021/09/05 01:17:23;;;;;;;28.30;10.13;;;;;;;4.03;100.00;101154.24;1779278;80;22243;-55
2021/09/05 01:19:57;;;;;;;24.90;9.38;;;;;;;4.03;100.00;101154.24;1746912;80;20892;-52
2021/09/05 01:22:43;;;;;;;20.40;7.40;;;;;;;4.02;100.00;101158.92;1779435;80;21446;-51
2021/09/05 01:25:29;;;;;;;26.33;7.47;;;;;;;4.01;100.00;101164.88;1779452;80;21433;-51
2021/09/05 01:28:11;;;;;;;17.45;6.42;;;;;;;4.02;100.00;101161.48;1749467;80;21458;-52
2021/09/05 01:30:55;;;;;;;20.30;7.40;;;;;;;4.05;100.00;101168.78;1779391;80;24153;-51
2021/09/05 01:33:40;;;;;;;28.15;9.05;;;;;;;4.14;100.00;101174.08;1779164;80;21089;-53
2021/09/05 01:36:11;;;;;;;24.52;7.83;;;;;;;4.14;100.00;101174.08;1778147;80;21002;-51
2021/09/05 01:38:39;;;;;;;19.90;8.45;;;;;;;4.21;100.00;101172.50;1779161;80;20912;-53
2021/09/05 01:41:24;;;;;;;21.77;8.15;;;;;;;4.21;100.00;101172.50;1779060;80;22229;-53
2021/09/05 01:44:05;;;;;;;20.23;7.37;;;;;;;4.20;100.00;101175.91;1736963;81;20991;-53
2021/09/05 01:46:51;;;;;;;26.45;7.87;;;;;;;4.14;100.00;101177.52;1779137;79;21312;-52
2021/09/05 01:49:31;;;;;;;16.67;6.75;;;;;;;4.14;100.00;101177.52;1744279;80;21510;-51
2021/09/05 01:52:06;;;;;;;21.73;7.50;;;;;;;4.13;100.00;101173.63;1757797;80;21136;-51
2021/09/05 01:54:37;;;;;;;21.73;7.30;;;;;;;4.11;100.00;101176.58;1768385;80;20912;-52
2021/09/05 01:57:05;;;;;;;22.40;5.90;;;;;;;4.10;100.00;101177.42;1776335;80;20936;-53
2021/09/05 01:59:34;;;;;;;22.45;5.72;;;;;;;4.11;100.00;101179.14;1761260;80;20880;-52
2021/09/05 02:02:19;;;;;;;22.00;6.37;;;;;;;4.11;100.00;101179.14;1779785;79;21543;-53
2021/09/05 02:04:53;;;;;;;13.88;6.08;;;;;;;4.10;100.00;101184.70;1748039;80;21128;-52
2021/09/05 02:07:29;;;;;;;16.70;5.20;;;;;;;4.11;100.00;101183.87;1778863;80;20931;-54
2021/09/05 02:10:12;;;;;;;15.98;5.50;;;;;;;4.14;100.00;101188.17;1778893;80;20924;-55
2021/09/05 02:12:59;;;;;;;20.50;5.92;;;;;;;4.15;100.00;101186.05;1779229;80;20955;-54
2021/09/05 02:15:44;;;;;;;22.17;6.65;;;;;;;4.20;100.00;101183.19;1779408;80;21014;-54
2021/09/05 02:18:21;;;;;;;17.52;6.45;;;;;;;4.25;100.00;101184.54;1778623;80;21287;-51
2021/09/05 02:21:00;;;;;;;22.50;5.97;;;;;;;4.35;100.00;101184.30;1778728;80;21007;-52
2021/09/05 02:23:28;;;;;;;14.07;5.62;;;;;;;4.41;100.00;101180.56;1779020;79;20916;-52
2021/09/05 02:26:09;;;;;;;18.10;5.92;;;;;;;4.47;100.00;101183.27;1734917;80;20955;-52
2021/09/05 02:28:55;;;;;;;21.48;6.67;;;;;;;4.56;100.00;101184.70;1779045;80;20947;-53
2021/09/05 02:31:34;;;;;;;33.02;6.72;;;;;;;4.61;100.00;101189.92;1736586;80;21016;-55
2021/09/05 02:34:18;;;;;;;19.25;5.47;;;;;;;4.68;100.00;101191.75;1736521;81;21008;-52
2021/09/05 02:36:47;;;;;;;21.48;6.28;;;;;;;4.72;100.00;101188.84;1709732;80;21014;-55
2021/09/05 02:39:32;;;;;;;15.72;5.80;;;;;;;4.74;100.00;101185.87;1783703;80;20966;-55
2021/09/05 02:42:07;;;;;;;12.98;5.85;;;;;;;4.81;100.00;101193.27;1784914;80;20995;-52
2021/09/05 02:44:50;;;;;;;20.17;5.30;;;;;;;4.84;100.00;101195.88;1784880;80;21134;-52
2021/09/05 02:47:28;;;;;;;14.43;6.00;;;;;;;4.92;100.00;101195.98;1769082;80;20986;-54
2021/09/05 02:49:59;;;;;;;18.30;5.58;;;;;;;4.92;100.00;101195.98;1756412;80;20966;-51
2021/09/05 02:52:35;;;;;;;20.95;5.75;;;;;;;4.96;100.00;101197.79;1784888;80;20974;-53
2021/09/05 02:55:09;;;;;;;13.60;5.45;;;;;;;4.94;100.00;101202.03;1784791;80;20936;-54
2021/09/05 02:57:38;;;;;;;16.07;5.78;;;;;;;4.95;100.00;101205.05;1782529;80;21948;-52
2021/09/05 03:00:13;;;;;;;21.02;6.17;;;;;;;4.97;100.00;101213.63;1760927;80;21189;-54
2021/09/05 03:02:43;;;;;;;17.50;6.12;;;;;;;4.99;100.00;101210.23;1782327;80;20947;-52
2021/09/05 03:05:28;;;;;;;15.65;5.97;;;;;;;5.03;100.00;101209.44;1785072;80;20959;-54
2021/09/05 03:08:00;;;;;;;15.00;5.35;;;;;;;5.06;100.00;101213.77;1780779;80;21551;-56
2021/09/05 03:10:35;;;;;;;12.63;4.70;;;;;;;5.07;100.00;101219.34;1785164;80;21224;-54
2021/09/05 03:13:04;;;;;;;15.50;5.62;;;;;;;5.05;100.00;101217.17;1755477;80;20994;-54
2021/09/05 03:15:50;;;;;;;14.38;6.05;;;;;;;5.05;100.00;101224.88;1763913;80;21465;-56
2021/09/05 03:18:25;;;;;;;18.65;6.03;;;;;;;5.04;100.00;101227.00;1785109;80;21023;-55
2021/09/05 03:21:05;;;;;;;17.52;5.83;;;;;;;5.06;100.00;101227.89;1763971;80;20927;-56
2021/09/05 03:23:51;;;;;;;;;;;;;;;5.04;100.00;101222.72;1788248;80;21149;-51
2021/09/05 03:26:19;;;;;;;15.13;6.22;;;;;;;5.18;100.00;101241.34;1782923;79;20126;-53
2021/09/05 03:29:04;;;;;;;13.72;5.80;;;;;;;5.21;100.00;101238.82;1785305;80;20947;-54
2021/09/05 03:31:41;;;;;;;14.95;6.20;;;;;;;5.18;100.00;101240.06;1784810;80;20932;-52
2021/09/05 03:34:26;;;;;;;17.77;6.22;;;;;;;5.18;100.00;101245.20;1785313;80;20876;-52
2021/09/05 03:37:04;;;;;;;14.05;6.12;;;;;;;5.19;100.00;101246.92;1685860;84;21178;-52
2021/09/05 03:39:32;;;;;;;16.75;6.30;;;;;;;5.20;100.00;101245.23;1779866;80;20880;-52
2021/09/05 03:42:16;;;;;;;8.13;5.70;;;;;;;5.20;100.00;101246.08;1778387;80;20959;-53
2021/09/05 03:44:50;;;;;;;16.25;6.45;;;;;;;5.20;100.00;101251.65;1742465;80;21019;-54
2021/09/05 03:47:24;;;;;;;22.75;7.05;;;;;;;5.21;100.00;101251.66;1778642;80;21230;-51
2021/09/05 03:50:10;;;;;;;11.00;6.67;;;;;;;5.24;100.00;101256.84;1757778;80;21152;-54
2021/09/05 03:52:39;;;;;;;14.95;6.90;;;;;;;5.26;100.00;101251.30;1779514;80;20928;-51
2021/09/05 03:55:07;;;;;;;13.70;6.95;;;;;;;5.32;100.00;101251.84;1779202;80;21027;-54
2021/09/05 03:57:34;;;;;;;22.95;6.65;;;;;;;5.36;100.00;101258.74;1774443;80;20995;-53
2021/09/05 04:00:01;;;;;;;15.58;7.50;;;;;;;5.42;100.00;101251.56;1779581;80;21038;-54
2021/09/05 04:02:29;;;;;;;15.03;7.10;;;;;;;5.50;100.00;101257.67;1779141;80;21874;-54
2021/09/05 04:04:57;;;;;;;17.52;7.15;;;;;;;5.62;100.00;101259.56;1779424;80;21623;-54
2021/09/05 04:07:24;;;;;;;11.95;7.12;;;;;;;5.71;100.00;101271.28;1779297;80;21514;-54
2021/09/05 04:10:09;;;;;;;10.63;6.95;;;;;;;5.81;100.00;101267.55;1779409;80;21479;-54
2021/09/05 04:12:43;;;;;;;22.00;7.28;;;;;;;5.91;100.00;101273.25;1779184;80;21646;-51
2021/09/05 04:15:10;;;;;;;15.30;5.95;;;;;;;6.07;100.00;101267.08;1779706;80;21090;-54
2021/09/05 04:17:38;;;;;;;11.18;6.75;;;;;;;6.27;100.00;101271.17;1779205;80;21003;-54
2021/09/05 04:20:06;;;;;;;14.13;7.15;;;;;;;6.47;100.00;101270.16;1779156;80;20919;-53
2021/09/05 04:22:34;;;;;;;10.68;6.45;;;;;;;6.75;100.00;101264.02;1779508;80;21010;-53
2021/09/05 04:25:02;;;;;;;15.00;6.80;;;;;;;7.05;100.00;101264.72;1779241;80;20888;-54
2021/09/05 04:27:28;;;;;;;16.07;7.08;;;;;;;7.33;100.00;101269.26;1749250;80;21084;-54
2021/09/05 04:29:55;;;;;;;14.73;6.87;;;;;;;7.59;100.00;101268.59;1779096;80;21430;-55
2021/09/05 04:32:23;;;;;;;13.88;6.80;;;;;;;7.83;100.00;101272.18;1779108;80;21086;-51
2021/09/05 04:34:49;;;;;;;21.12;7.62;;;;;;;8.12;100.00;101271.47;1779043;80;20971;-53
2021/09/05 04:37:17;;;;;;;12.75;6.97;;;;;;;8.37;98.97;101272.87;1779485;80;20959;-52
2021/09/05 04:39:44;;;;;;;13.85;6.60;;;;;;;8.62;98.10;101274.70;1778996;80;21117;-53
2021/09/05 04:42:11;;;;;;;10.98;6.08;;;;;;;8.85;96.54;101271.77;1779179;80;20965;-53
2021/09/05 04:44:38;;;;;;;14.35;5.97;;;;;;;9.02;93.62;101271.78;1779036;80;20943;-54
2021/09/05 04:47:05;;;;;;;10.35;6.40;;;;;;;9.16;92.27;101279.09;1779174;80;20995;-51
2021/09/05 04:49:32;;;;;;;12.50;6.47;;;;;;;9.20;89.55;101284.69;1748936;80;20931;-51
2021/09/05 04:51:59;;;;;;;9.85;6.20;;;;;;;9.23;88.59;101279.97;1779305;80;21963;-51
2021/09/05 04:54:26;;;;;;;11.38;5.53;;;;;;;9.25;87.31;101281.27;1779434;79;20903;-52
2021/09/05 04:56:52;;;;;;;16.48;5.62;;;;;;;9.24;86.10;101283.42;1779717;79;21046;-52
2021/09/05 04:59:18;;;;;;;13.13;5.70;;;;;;;9.23;84.77;101284.29;1748802;80;21029;-53
2021/09/05 05:01:45;;;;;;;6.87;5.20;;;;;;;9.18;83.53;101280.40;1779465;80;20916;-51
2021/09/05 05:04:11;;;;;;;15.60;6.08;;;;;;;9.11;81.96;101286.43;1779430;80;21125;-52
2021/09/05 05:06:41;;;;;;;8.43;5.60;;;;;;;9.09;81.93;101282.54;1779202;80;21003;-52
2021/09/05 05:09:09;;;;;;;12.63;5.53;;;;;;;9.09;82.19;101290.70;1779078;80;21846;-55
2021/09/05 05:11:38;;;;;;;7.78;5.35;;;;;;;9.06;81.86;101294.16;1779117;80;20923;-53
2021/09/05 05:14:06;;;;;;;8.23;4.70;;;;;;;9.04;81.88;101292.02;1779127;80;21516;-52
2021/09/05 05:16:32;;;;;;;6.72;5.00;;;;;;;9.02;81.10;101299.74;1779414;79;21794;-55
2021/09/05 05:18:59;;;;;;;12.33;5.50;;;;;;;9.01;81.38;101303.19;1779155;80;21487;-53
2021/09/05 05:21:27;;;;;;;11.48;4.90;;;;;;;8.99;81.43;101304.06;1779069;80;20947;-53
2021/09/05 05:23:54;;;;;;;10.30;4.47;;;;;;;8.98;81.74;101303.19;1779448;80;20987;-52
2021/09/05 05:26:22;;;;;;;7.35;4.03;;;;;;;9.01;81.83;101306.22;1779273;80;20994;-54
2021/09/05 05:28:48;;;;;;;8.53;4.20;;;;;;;9.08;81.96;101299.31;1779327;80;21083;-53
2021/09/05 05:31:16;;;;;;;5.28;4.15;;;;;;;9.13;82.21;101300.20;1779199;79;20952;-55
2021/09/05 05:33:42;;;;;;;12.23;5.35;;;;;;;9.23;81.79;101300.63;1779599;80;20956;-51
2021/09/05 05:36:09;;;;;;;6.03;3.62;;;;;;;9.32;81.10;101297.20;1779206;80;20955;-54
2021/09/05 05:38:39;;;;;;;6.12;3.08;;;;;;;9.42;80.88;101300.20;1779081;80;20936;-54
2021/09/05 05:41:06;;;;;;;8.03;3.58;;;;;;;9.53;80.04;101295.48;1779039;80;21269;-55
2021/09/05 05:43:34;;;;;;;6.60;3.25;;;;;;;9.62;79.74;101300.63;1748646;80;20923;-54
2021/09/05 05:46:01;;;;;;;4.78;3.52;;;;;;;9.70;79.43;101295.45;1779315;79;21548;-54
2021/09/05 05:48:27;;;;;;;4.05;3.15;;;;;;;9.78;79.34;101304.92;1779130;80;20955;-56
2021/09/05 05:50:53;;;;;;;3.92;3.00;;;;;;;9.90;79.06;101301.87;1779404;80;21516;-54
2021/09/05 05:53:21;;;;;;;2.95;2.52;;;;;;;10.03;78.93;101305.30;1779497;80;21790;-55
2021/09/05 05:55:47;;;;;;;3.25;2.72;;;;;;;10.12;77.31;101309.17;1779617;80;21006;-53
2021/09/05 05:58:14;;;;;;;3.62;3.00;;;;;;;10.20;77.12;101311.70;1779405;80;20900;-53
2021/09/05 06:00:42;;;;;;;5.42;2.52;;;;;;;10.28;75.86;101309.09;1779616;80;21027;-55
2021/09/05 06:03:09;;;;;;;5.92;2.83;;;;;;;10.33;75.14;101309.52;1779581;80;20939;-53
2021/09/05 06:05:36;;;;;;;6.95;2.72;;;;;;;10.38;73.43;101313.81;1779558;80;21108;-55
2021/09/05 06:08:04;;;;;;;3.62;2.70;;;;;;;10.51;73.22;101315.95;1779717;80;20963;-54
2021/09/05 06:10:32;;;;;;;5.30;3.50;;;;;;;10.59;72.75;101323.23;1779643;80;20908;-52
2021/09/05 06:12:59;;;;;;;3.72;2.85;;;;;;;10.64;72.98;101322.80;1749458;80;20978;-52
2021/09/05 06:15:26;;;;;;;4.45;3.27;;;;;;;10.72;72.53;101325.33;1779592;80;20963;-55
2021/09/05 06:17:54;;;;;;;3.58;3.02;;;;;;;10.78;71.18;101318.84;1779665;80;20994;-53
2021/09/05 06:20:20;;;;;;;5.90;3.22;;;;;;;10.90;71.42;101322.64;1779642;80;20940;-55
2021/09/05 06:22:47;;;;;;;4.67;3.40;;;;;;;10.98;70.79;101323.90;1749003;80;20979;-53
2021/09/05 06:25:13;;;;;;;5.05;3.50;;;;;;;11.05;70.45;101320.84;1779649;80;21471;-54
2021/09/05 06:27:39;;;;;;;4.85;3.67;;;;;;;11.11;70.17;101325.09;1779997;80;21477;-52
2021/09/05 06:30:07;;;;;;;7.62;4.03;;;;;;;11.20;70.10;101328.48;1749118;80;21790;-53
2021/09/05 06:32:34;;;;;;;10.35;3.47;;;;;;;11.32;69.17;101330.59;1779698;80;20943;-54
2021/09/05 06:35:01;;;;;;;3.72;2.87;;;;;;;11.39;68.79;101325.77;1779784;80;20998;-55
2021/09/05 06:37:27;;;;;;;5.92;2.65;;;;;;;11.50;69.11;101333.04;1780092;80;21034;-55
2021/09/05 06:39:53;;;;;;;4.03;2.83;;;;;;;11.64;67.91;101330.75;1781189;80;20939;-53
2021/09/05 06:42:20;;;;;;;2.30;2.10;;;;;;;11.76;67.54;101331.08;1785534;80;21746;-53
2021/09/05 06:44:46;;;;;;;2.65;2.42;;;;;;;11.89;65.97;101327.92;1785406;80;20912;-54
2021/09/05 06:47:13;;;;;;;3.98;2.17;;;;;;;12.05;64.68;101330.83;1785724;80;20924;-53
2021/09/05 06:49:40;;;;;;;2.35;1.90;;;;;;;12.20;63.71;101336.70;1785265;79;21516;-53
2021/09/05 06:52:06;;;;;;;1.95;1.67;;;;;;;12.36;61.27;101335.66;1785657;80;21369;-52
2021/09/05 06:54:33;;;;;;;3.52;2.10;;;;;;;12.50;60.10;101332.02;1785299;80;21272;-52
2021/09/05 06:57:00;;;;;;;5.45;1.60;;;;;;;12.61;61.28;101335.36;1785453;79;20994;-52
2021/09/05 06:59:26;;;;;;;2.15;1.70;;;;;;;12.78;61.31;101339.48;1785465;80;20974;-52
2021/09/05 07:01:53;;;;;;;3.42;1.80;;;;;;;12.89;59.86;101332.38;1785337;79;20916;-53
2021/09/05 07:04:19;;;;;;;2.08;1.85;;;;;;;13.02;59.98;101332.22;1785439;80;20990;-53
2021/09/05 07:06:46;;;;;;;2.35;1.87;;;;;;;13.13;58.52;101334.20;1785374;80;21088;-54
2021/09/05 07:09:13;;;;;;;2.17;1.75;;;;;;;13.25;57.58;101336.19;1785256;80;20975;-52
2021/09/05 07:11:40;;;;;;;3.37;1.50;;;;;;;13.36;55.40;101344.70;1785352;80;20957;-55
2021/09/05 07:14:06;;;;;;;5.47;1.37;;;;;;;13.44;55.57;101345.91;1785374;80;20962;-53
2021/09/05 07:16:33;;;;;;;3.10;1.47;;;;;;;13.56;55.58;101348.30;1756475;80;21002;-53
2021/09/05 07:18:59;;;;;;;1.62;1.32;;;;;;;13.69;55.17;101350.24;1785280;79;21489;-53
2021/09/05 07:21:26;;;;;;;3.92;1.25;;;;;;;13.81;52.23;101349.63;1785095;80;20951;-54
2021/09/05 07:23:52;;;;;;;2.90;1.10;;;;;;;13.88;51.37;101346.87;1785076;80;20971;-53
2021/09/05 07:26:18;;;;;;;2.58;1.45;;;;;;;13.98;53.14;101339.75;1785183;79;21571;-54
2021/09/05 07:28:44;;;;;;;1.22;1.07;;;;;;;14.09;52.93;101346.06;1785222;80;21445;-53
2021/09/05 07:31:11;;;;;;;1.85;1.20;;;;;;;14.22;51.96;101347.98;1785118;80;21133;-52
2021/09/05 07:33:38;;;;;;;2.12;1.30;;;;;;;14.35;50.52;101350.78;1756352;80;20931;-54
2021/09/05 07:36:05;;;;;;;1.52;1.32;;;;;;;14.49;51.71;101350.92;1756786;80;21524;-54
2021/09/05 07:38:31;;;;;;;1.12;1.10;;;;;;;14.63;49.90;101348.91;1785112;80;21018;-54
2021/09/05 07:40:57;;;;;;;2.67;1.37;;;;;;;14.64;48.85;101356.25;1752447;80;21522;-53
2021/09/05 07:43:24;;;;;;;1.72;1.25;;;;;;;14.67;49.46;101351.00;1779527;80;22153;-53
2021/09/05 07:45:51;;;;;;;1.42;1.32;;;;;;;14.80;49.04;101356.38;1779235;80;21299;-54
2021/09/05 07:48:17;;;;;;;2.45;1.40;;;;;;;14.96;49.37;101357.78;1748939;80;20979;-53
2021/09/05 07:50:45;;;;;;;4.42;1.60;;;;;;;15.00;48.82;101355.09;1779331;80;20932;-54
2021/09/05 07:53:11;;;;;;;1.20;1.10;;;;;;;14.90;49.58;101359.64;1774606;80;20971;-54
2021/09/05 07:55:38;;;;;;;2.08;1.00;;;;;;;14.92;49.14;101361.77;1779169;80;21132;-52
2021/09/05 07:58:05;;;;;;;1.42;1.30;;;;;;;15.07;49.54;101367.55;1748917;80;20923;-53
2021/09/05 08:00:31;;;;;;;1.65;1.55;;;;;;;15.18;48.59;101361.63;1779789;80;20975;-53
2021/09/05 08:02:58;;;;;;;1.22;1.12;;;;;;;15.26;48.63;101362.75;1779469;80;21485;-54
2021/09/05 08:05:24;;;;;;;1.27;1.15;;;;;;;15.16;47.38;101366.02;1779409;80;20947;-53
2021/09/05 08:07:51;;;;;;;1.65;0.90;;;;;;;14.94;46.55;101378.23;1780013;80;21092;-54
2021/09/05 08:10:18;;;;;;;1.10;1.07;;;;;;;14.90;47.76;101375.29;1779358;80;20931;-54
2021/09/05 08:12:45;;;;;;;1.00;0.90;;;;;;;15.07;46.92;101366.24;1774847;80;20963;-55
2021/09/05 08:15:12;;;;;;;3.17;0.80;;;;;;;15.30;46.69;101369.61;1749018;80;20912;-52
2021/09/05 08:17:40;;;;;;;1.05;0.98;;;;;;;15.45;45.06;101361.02;1779514;80;21466;-54
2021/09/05 08:20:08;;;;;;;2.98;0.90;;;;;;;15.49;41.35;101370.02;1748977;80;21202;-54
2021/09/05 08:22:34;;;;;;;7.78;1.02;;;;;;;15.54;42.49;101362.55;1779346;80;20962;-53
2021/09/05 08:25:00;;;;;;;0.70;0.70;;;;;;;15.70;42.13;101361.24;1779706;80;20939;-54
2021/09/05 08:27:27;;;;;;;2.85;0.70;;;;;;;16.01;41.48;101359.16;1779517;80;20958;-53
2021/09/05 08:29:53;;;;;;;0.62;0.62;;;;;;;16.32;42.25;101367.48;1779306;80;20924;-54
2021/09/05 08:32:20;;;;;;;4.05;0.98;;;;;;;16.48;39.33;101357.88;1748778;80;21159;-53
2021/09/05 08:34:46;;;;;;;3.55;0.80;;;;;;;16.43;39.08;101366.30;1748918;80;20970;-53
2021/09/05 08:37:13;;;;;;;1.10;1.00;;;;;;;16.58;39.46;101363.27;1779364;79;20995;-54
2021/09/05 08:39:39;;;;;;;1.00;0.90;;;;;;;16.78;38.38;101356.56;1779535;80;21007;-55
2021/09/05 08:42:06;;;;;;;7.53;1.12;;;;;;;17.07;39.83;101345.25;1779186;80;20967;-55
2021/09/05 08:44:32;;;;;;;2.35;1.00;;;;;;;17.40;38.30;101355.98;1749118;80;21374;-54
2021/09/05 08:47:00;;;;;;;1.10;1.00;;;;;;;17.47;38.45;101354.87;1779099;80;20967;-52
2021/09/05 08:49:32;;;;;;;1.62;0.90;;;;;;;17.50;37.13;101353.92;1779256;80;20970;-55
2021/09/05 08:52:00;;;;;;;1.12;1.02;;;;;;;17.61;37.23;101354.88;1779144;80;20975;-52
2021/09/05 08:54:26;;;;;;;4.90;4.35;;;;;;;17.89;36.64;101359.16;1779233;80;20955;-54
2021/09/05 08:56:53;;;;;;;2.60;1.77;;;;;;;17.88;35.97;101358.76;1779206;80;21131;-52
2021/09/05 08:59:20;;;;;;;1.35;1.25;;;;;;;17.71;36.41;101361.97;1779096;80;20939;-54
2021/09/05 09:02:01;;;;;;;0.82;0.70;;;;;;;17.78;37.30;101361.67;1778990;80;20959;-54
2021/09/05 09:04:40;;;;;;;0.90;0.90;;;;;;;18.10;37.37;101356.26;1779139;79;20986;-54
2021/09/05 09:07:11;;;;;;;1.55;1.30;;;;;;;18.11;34.14;101357.12;1779123;80;20990;-53
2021/09/05 09:09:45;;;;;;;2.80;2.60;;;;;;;17.95;36.65;101362.87;1748751;80;21221;-52
2021/09/05 09:12:13;;;;;;;2.70;2.50;;;;;;;17.66;37.00;101365.56;1778722;80;20877;-53
2021/09/05 09:14:46;;;;;;;3.47;1.45;;;;;;;17.32;36.31;101369.78;1779471;80;21496;-55
2021/09/05 09:17:14;;;;;;;1.72;0.98;;;;;;;17.22;37.60;101373.14;1779257;80;20888;-54
2021/09/05 09:19:44;;;;;;;0.90;0.90;;;;;;;17.28;36.29;101360.30;1779077;80;20951;-53
2021/09/05 09:22:20;;;;;;;0.70;0.70;;;;;;;17.45;37.04;101361.91;1779408;80;21131;-54
2021/09/05 09:24:47;;;;;;;4.65;1.17;;;;;;;17.69;38.61;101357.23;1779173;80;20948;-54
2021/09/05 09:27:15;;;;;;;0.80;0.78;;;;;;;18.11;35.28;101357.97;1779186;80;20971;-54
2021/09/05 09:29:41;;;;;;;3.65;1.20;;;;;;;18.25;33.90;101366.64;1779107;80;21420;-55
2021/09/05 09:32:18;;;;;;;1.82;1.00;;;;;;;18.06;34.43;101366.45;1779457;80;21006;-52
2021/09/05 09:34:47;;;;;;;4.55;0.80;;;;;;;17.88;33.99;101370.08;1779267;80;21777;-55
2021/09/05 09:37:19;;;;;;;0.80;0.80;;;;;;;17.58;36.67;101364.14;1779459;80;20900;-54
2021/09/05 09:39:51;;;;;;;5.67;1.98;;;;;;;17.35;37.25;101366.59;1778355;80;20936;-53
2021/09/05 09:42:38;;;;;;;1.07;0.98;;;;;;;17.37;36.38;101370.48;1784275;80;20932;-53
2021/09/05 09:45:17;;;;;;;0.90;0.90;;;;;;;17.58;35.28;101362.84;1784935;80;20939;-53
2021/09/05 09:47:45;;;;;;;3.87;0.98;;;;;;;17.50;36.16;101367.84;1785090;80;21225;-52
2021/09/05 09:50:13;;;;;;;1.32;0.82;;;;;;;17.51;35.35;101369.56;1784958;80;21110;-54
2021/09/05 09:52:40;;;;;;;3.22;0.82;;;;;;;17.63;36.67;101374.00;1784905;79;20927;-51
2021/09/05 09:56:39;;;;;;;0.93;0.82;;;;;;;18.27;34.28;101367.44;1814853;79;22795;-51
2021/09/05 09:59:07;;;;;;;0.80;0.80;;;;;;;18.51;34.17;101376.61;1788099;80;20904;-52
2021/09/05 10:01:33;;;;;;;0.70;0.70;;;;;;;18.56;33.36;101372.52;1757325;80;21007;-54
2021/09/05 10:04:02;;;;;;;0.80;0.80;;;;;;;18.56;34.86;101375.98;1788056;80;20924;-54
2021/09/05 10:06:30;;;;;;;1.57;0.70;;;;;;;18.45;35.50;101378.16;1787926;80;21426;-52
2021/09/05 10:09:03;;;;;;;0.60;0.60;;;;;;;18.12;35.08;101374.08;1788004;80;20967;-51
2021/09/05 10:11:30;;;;;;;1.32;0.70;;;;;;;17.93;36.75;101376.47;1757198;79;21002;-52
2021/09/05 10:13:58;;;;;;;0.82;0.82;;;;;;;18.09;32.88;101371.58;1732395;80;21083;-54
2021/09/05 10:16:26;;;;;;;0.68;0.60;;;;;;;18.22;34.25;101369.37;1787850;80;21003;-52
2021/09/05 10:18:57;;;;;;;2.27;0.90;;;;;;;18.50;34.10;101381.46;1757678;80;20987;-53
2021/09/05 10:21:23;;;;;;;0.93;0.80;;;;;;;18.89;33.29;101377.38;1785874;80;21508;-53
2021/09/05 10:23:53;;;;;;;3.50;0.80;;;;;;;19.17;32.83;101377.19;1756940;80;21495;-54
2021/09/05 10:26:20;;;;;;;3.72;0.70;;;;;;;19.02;32.99;101384.34;1785078;80;23475;-53
2021/09/05 10:28:50;;;;;;;1.87;0.60;;;;;;;18.73;31.77;101378.44;1785620;79;21010;-53
2021/09/05 10:31:29;;;;;;;0.62;0.62;;;;;;;18.80;33.46;101379.89;1785840;80;20971;-54
2021/09/05 10:33:57;;;;;;;1.57;0.70;;;;;;;19.15;34.33;101384.72;1784798;80;21682;-53
2021/09/05 10:36:27;;;;;;;2.40;0.80;;;;;;;19.59;31.81;101387.78;1785697;80;20962;-53
2021/09/05 10:39:06;;;;;;;1.20;0.80;;;;;;;19.54;31.47;101382.71;1785683;80;21135;-54
2021/09/05 10:41:47;;;;;;;5.67;0.90;;;;;;;19.25;32.61;101382.14;1785683;79;20990;-54
2021/09/05 10:44:13;;;;;;;0.90;0.60;;;;;;;18.93;33.38;101381.14;1786026;80;20928;-52
2021/09/05 10:46:50;;;;;;;1.65;0.80;;;;;;;18.90;32.45;101390.45;1785677;80;20955;-51
2021/09/05 10:49:17;;;;;;;2.45;0.78;;;;;;;18.78;30.72;101377.80;1785992;80;20931;-54
2021/09/05 10:51:47;;;;;;;0.50;0.50;;;;;;;18.53;32.93;101387.89;1785663;80;21018;-55
2021/09/05 10:54:29;;;;;;;8.38;7.15;;;;;;;18.45;33.56;101380.78;1785751;80;22182;-54
2021/09/05 10:56:58;;;;;;;1.67;1.57;;;;;;;18.38;31.92;101387.56;1772063;80;21533;-55
2021/09/05 10:59:26;;;;;;;2.42;0.90;;;;;;;18.31;32.90;101384.75;1771672;80;21458;-55
2021/09/05 11:01:57;;;;;;;0.62;0.60;;;;;;;18.43;31.46;101383.45;1750226;81;21520;-53
2021/09/05 11:04:43;;;;;;;2.50;0.68;;;;;;;18.42;33.28;101387.45;1750114;81;21074;-55
2021/09/05 11:07:13;;;;;;;1.47;0.75;;;;;;;18.35;32.87;101372.41;1771406;81;20920;-51
2021/09/05 11:09:42;;;;;;;0.50;0.50;;;;;;;18.67;33.68;101376.45;1768930;80;20928;-54
2021/09/05 11:12:23;;;;;;;0.88;0.57;;;;;;;19.17;33.26;101379.81;1771326;79;22148;-54
2021/09/05 11:14:54;;;;;;;5.03;0.82;;;;;;;19.46;31.52;101367.27;1771470;81;21073;-54
2021/09/05 11:17:25;;;;;;;0.78;0.60;;;;;;;19.77;31.17;101365.97;1771491;80;20905;-54
2021/09/05 11:19:59;;;;;;;3.40;0.60;;;;;;;19.96;29.74;101375.72;1771506;81;20885;-54
2021/09/05 11:22:32;;;;;;;0.57;0.57;;;;;;;19.70;30.66;101375.48;1771117;80;20998;-55
2021/09/05 11:25:19;;;;;;;2.55;0.95;;;;;;;19.62;30.67;101372.73;1771304;79;20999;-53
2021/09/05 11:27:58;;;;;;;2.95;1.00;;;;;;;19.59;30.18;101370.71;1771346;80;21831;-52
2021/09/05 11:30:37;;;;;;;4.53;1.10;;;;;;;19.53;31.18;101363.46;1771341;81;21139;-54
2021/09/05 11:33:10;;;;;;;1.87;1.00;;;;;;;19.72;30.94;101362.69;1771161;80;22788;-53
2021/09/05 11:35:46;;;;;;;3.20;0.80;;;;;;;20.01;30.80;101371.59;1771183;80;20881;-52
2021/09/05 11:38:18;;;;;;;0.80;0.70;;;;;;;20.07;30.04;101367.38;1771342;81;21003;-53